Time;durP1;ratioP1;P1;durP2;ratioP2;P2;SDS_P1;SDS_P2;PMS_P1;PMS_P2;Temp;Humidity;BMP_temperature;BMP_pressure;BME280_temperature;BME280_humidity;BME280_pressure;Samples;Min_cycle;Max_cycle;Signal;HPM_P1;HPM_P2
2022/07/02 00:01:59;;;;;;;2.78;1.52;;;;;;;;;;5073005;28;20418;-88
2022/07/02 00:04:32;;;;;;;2.95;1.70;;;;;;;;;;5072192;28;20844;-87
2022/07/02 00:06:58;;;;;;;2.67;1.50;;;;;;;;;;5073006;28;20376;-88
2022/07/02 00:09:26;;;;;;;2.57;1.80;;;;;;;;;;5072974;28;20379;-88
2022/07/02 00:11:52;;;;;;;2.03;1.60;;;;;;;;;;5072622;28;20470;-88
2022/07/02 00:14:19;;;;;;;2.17;1.52;;;;;;;;;;5072853;28;20372;-88
2022/07/02 00:16:48;;;;;;;1.85;1.60;;;;;;;;;;5063006;28;20753;-86
2022/07/02 00:19:14;;;;;;;1.58;1.48;;;;;;;;;;5075357;28;20857;-85
2022/07/02 00:21:40;;;;;;;2.88;1.60;;;;;;;;;;5072630;28;20803;-85
2022/07/02 00:24:07;;;;;;;2.35;1.48;;;;;;;;;;5072754;28;20368;-85
2022/07/02 00:26:34;;;;;;;2.63;1.30;;;;;;;;;;5072753;28;20474;-85
2022/07/02 00:29:11;;;;;;;1.42;1.33;;;;;;;;;;5072661;28;20368;-85
2022/07/02 00:31:38;;;;;;;1.63;1.10;;;;;;;;;;5072448;28;20521;-85
2022/07/02 00:34:05;;;;;;;1.70;1.23;;;;;;;;;;5072624;28;20383;-85
2022/07/02 00:36:32;;;;;;;1.55;1.20;;;;;;;;;;5072527;28;20384;-85
2022/07/02 00:38:58;;;;;;;3.40;1.30;;;;;;;;;;5072565;28;20371;-85
2022/07/02 00:41:25;;;;;;;1.90;1.38;;;;;;;;;;5072481;28;20408;-85
2022/07/02 00:43:51;;;;;;;1.30;1.20;;;;;;;;;;5072492;28;20384;-85
2022/07/02 00:46:18;;;;;;;2.65;1.30;;;;;;;;;;5072428;28;20879;-85
2022/07/02 00:48:44;;;;;;;4.45;1.30;;;;;;;;;;5072351;28;20501;-86
2022/07/02 00:51:10;;;;;;;1.92;1.10;;;;;;;;;;5072648;28;20426;-85
2022/07/02 00:53:37;;;;;;;2.38;1.20;;;;;;;;;;5067761;28;20429;-85
2022/07/02 00:56:03;;;;;;;1.40;1.30;;;;;;;;;;5061594;28;20392;-86
2022/07/02 00:58:30;;;;;;;3.50;1.10;;;;;;;;;;5071478;28;20388;-85
2022/07/02 01:00:57;;;;;;;1.35;0.95;;;;;;;;;;5071044;28;20756;-86
2022/07/02 01:03:24;;;;;;;1.60;0.95;;;;;;;;;;5074204;28;20370;-85
2022/07/02 01:05:51;;;;;;;1.30;1.00;;;;;;;;;;5071897;28;20411;-85
2022/07/02 01:11:02;;;;;;;2.60;1.15;;;;;;;;;;5071009;28;20406;-87
2022/07/02 01:13:32;;;;;;;1.40;1.00;;;;;;;;;;5070851;28;20790;-86
2022/07/02 01:15:58;;;;;;;2.03;1.10;;;;;;;;;;5072543;28;20463;-87
2022/07/02 01:18:24;;;;;;;2.10;1.10;;;;;;;;;;5076905;28;20379;-87
2022/07/02 01:20:50;;;;;;;2.15;1.15;;;;;;;;;;5076607;28;20814;-86
2022/07/02 01:23:16;;;;;;;1.35;1.00;;;;;;;;;;5078229;28;20406;-86
2022/07/02 01:25:49;;;;;;;1.85;1.13;;;;;;;;;;5078201;28;20383;-87
2022/07/02 01:28:15;;;;;;;1.92;1.20;;;;;;;;;;5077084;28;20455;-86
2022/07/02 01:30:41;;;;;;;1.38;1.00;;;;;;;;;;5078602;28;20396;-87
2022/07/02 01:33:07;;;;;;;1.13;1.02;;;;;;;;;;5076408;28;20855;-87
2022/07/02 01:35:33;;;;;;;1.60;1.10;;;;;;;;;;5057358;28;20396;-87
2022/07/02 01:37:59;;;;;;;1.50;1.10;;;;;;;;;;5058522;28;20381;-87
2022/07/02 01:40:25;;;;;;;1.27;1.08;;;;;;;;;;5058476;28;20380;-87
2022/07/02 01:42:51;;;;;;;2.00;1.20;;;;;;;;;;5058478;28;20766;-86
2022/07/02 01:45:17;;;;;;;1.92;1.08;;;;;;;;;;5058433;28;20382;-87
2022/07/02 01:47:43;;;;;;;1.52;1.20;;;;;;;;;;5058577;28;20384;-86
2022/07/02 01:50:10;;;;;;;1.67;1.10;;;;;;;;;;5058420;28;20385;-86
2022/07/02 01:52:36;;;;;;;1.35;1.20;;;;;;;;;;5067164;28;20375;-86
2022/07/02 01:55:02;;;;;;;4.03;1.10;;;;;;;;;;5080959;28;20425;-87
2022/07/02 01:57:30;;;;;;;2.28;1.20;;;;;;;;;;5071672;28;20397;-87
2022/07/02 01:59:56;;;;;;;1.98;1.38;;;;;;;;;;5069843;28;20371;-87
2022/07/02 02:02:23;;;;;;;2.80;1.30;;;;;;;;;;5076236;28;20490;-86
2022/07/02 02:04:49;;;;;;;3.90;1.20;;;;;;;;;;5075311;28;20380;-86
2022/07/02 02:07:15;;;;;;;1.48;1.10;;;;;;;;;;5075318;28;20372;-87
2022/07/02 02:09:41;;;;;;;3.10;1.20;;;;;;;;;;5078474;28;20536;-87
2022/07/02 02:12:07;;;;;;;1.70;1.20;;;;;;;;;;5076974;28;20479;-86
2022/07/02 02:14:33;;;;;;;1.70;1.25;;;;;;;;;;5078247;28;20400;-86
2022/07/02 02:16:59;;;;;;;3.10;1.07;;;;;;;;;;5078269;28;20488;-87
2022/07/02 02:19:25;;;;;;;2.00;1.50;;;;;;;;;;5078125;28;20845;-87
2022/07/02 02:21:51;;;;;;;2.90;1.10;;;;;;;;;;5079265;28;20919;-87
2022/07/02 02:24:17;;;;;;;1.40;1.10;;;;;;;;;;5078157;28;20384;-87
2022/07/02 02:26:43;;;;;;;1.73;1.15;;;;;;;;;;5077545;28;20386;-87
2022/07/02 02:29:09;;;;;;;2.78;1.00;;;;;;;;;;5074212;28;20376;-87
2022/07/02 02:31:35;;;;;;;3.55;1.27;;;;;;;;;;5074809;28;20465;-86
2022/07/02 02:34:01;;;;;;;2.22;1.23;;;;;;;;;;5074946;28;20384;-87
2022/07/02 02:36:27;;;;;;;2.80;1.10;;;;;;;;;;5074797;28;20376;-86
2022/07/02 02:38:53;;;;;;;1.45;1.20;;;;;;;;;;5074800;28;20429;-87
2022/07/02 02:41:19;;;;;;;5.20;1.10;;;;;;;;;;5074610;28;20892;-86
2022/07/02 02:43:45;;;;;;;1.20;0.95;;;;;;;;;;5074630;28;20459;-86
2022/07/02 02:46:11;;;;;;;1.67;1.00;;;;;;;;;;5074687;28;20458;-87
2022/07/02 02:48:38;;;;;;;3.37;1.00;;;;;;;;;;5074563;28;20841;-86
2022/07/02 02:51:05;;;;;;;3.73;1.20;;;;;;;;;;5074583;28;20514;-87
2022/07/02 02:53:31;;;;;;;2.40;1.17;;;;;;;;;;5073183;28;20404;-87
2022/07/02 02:55:58;;;;;;;1.95;1.10;;;;;;;;;;5074460;28;20371;-87
2022/07/02 02:58:24;;;;;;;3.13;1.23;;;;;;;;;;5074420;28;20379;-87
2022/07/02 03:00:51;;;;;;;2.78;1.20;;;;;;;;;;5074430;28;20383;-87
2022/07/02 03:03:17;;;;;;;2.55;1.20;;;;;;;;;;5073430;28;20399;-87
2022/07/02 03:05:43;;;;;;;2.72;1.13;;;;;;;;;;5075431;28;20864;-87
2022/07/02 03:08:09;;;;;;;2.92;1.17;;;;;;;;;;5073169;28;20374;-86
2022/07/02 03:10:35;;;;;;;1.80;1.15;;;;;;;;;;5057319;28;20798;-87
2022/07/02 03:13:01;;;;;;;1.83;1.17;;;;;;;;;;5054375;28;20464;-87
2022/07/02 03:15:27;;;;;;;1.90;1.20;;;;;;;;;;5063303;28;20397;-87
2022/07/02 03:17:53;;;;;;;3.70;1.30;;;;;;;;;;5074478;28;20380;-86
2022/07/02 03:20:19;;;;;;;3.20;1.00;;;;;;;;;;5073911;28;20868;-87
2022/07/02 03:22:45;;;;;;;3.50;1.13;;;;;;;;;;5073918;28;20403;-86
2022/07/02 03:25:13;;;;;;;1.15;1.05;;;;;;;;;;5073914;28;20942;-87
2022/07/02 03:27:39;;;;;;;2.05;1.10;;;;;;;;;;5073818;28;20916;-86
2022/07/02 03:30:06;;;;;;;3.00;1.10;;;;;;;;;;5072469;28;20752;-86
2022/07/02 03:32:32;;;;;;;2.50;1.20;;;;;;;;;;5072538;28;20908;-86
2022/07/02 03:34:58;;;;;;;3.30;1.30;;;;;;;;;;5073679;28;20383;-86
2022/07/02 03:37:28;;;;;;;2.47;1.20;;;;;;;;;;5073935;28;20383;-87
2022/07/02 03:39:54;;;;;;;1.77;1.03;;;;;;;;;;5073326;28;20388;-87
2022/07/02 03:42:20;;;;;;;1.55;1.20;;;;;;;;;;5073669;28;20461;-86
2022/07/02 03:44:46;;;;;;;1.20;1.00;;;;;;;;;;5073506;28;20384;-87
2022/07/02 03:47:12;;;;;;;1.92;1.10;;;;;;;;;;5073494;28;20383;-87
2022/07/02 03:49:38;;;;;;;1.45;1.20;;;;;;;;;;5075873;28;20395;-86
2022/07/02 03:52:05;;;;;;;2.50;1.25;;;;;;;;;;5073406;28;20391;-86
2022/07/02 03:54:31;;;;;;;2.25;1.20;;;;;;;;;;5073369;28;20463;-87
2022/07/02 03:56:57;;;;;;;2.20;1.27;;;;;;;;;;5073232;28;20856;-86
2022/07/02 03:59:24;;;;;;;1.55;1.20;;;;;;;;;;5071969;28;20764;-86
2022/07/02 04:01:50;;;;;;;3.67;1.40;;;;;;;;;;5073334;28;20403;-87
2022/07/02 04:04:16;;;;;;;3.00;1.30;;;;;;;;;;5073199;28;20379;-87
2022/07/02 04:06:42;;;;;;;1.60;1.40;;;;;;;;;;5072096;28;20384;-87
2022/07/02 04:09:08;;;;;;;2.47;1.27;;;;;;;;;;5071077;28;20378;-86
2022/07/02 04:11:34;;;;;;;1.88;1.33;;;;;;;;;;5072878;28;20416;-87
2022/07/02 04:14:00;;;;;;;2.65;1.40;;;;;;;;;;5072946;28;21090;-87
2022/07/02 04:16:27;;;;;;;3.33;1.60;;;;;;;;;;5074306;28;20468;-86
2022/07/02 04:18:53;;;;;;;2.20;1.42;;;;;;;;;;5072917;28;20380;-86
2022/07/02 04:21:19;;;;;;;1.85;1.60;;;;;;;;;;5072647;28;20933;-86
2022/07/02 04:23:46;;;;;;;2.22;1.58;;;;;;;;;;5072022;28;20437;-87
2022/07/02 04:26:12;;;;;;;2.33;1.60;;;;;;;;;;5072764;28;20380;-86
2022/07/02 04:28:38;;;;;;;2.10;1.80;;;;;;;;;;5072661;28;20383;-86
2022/07/02 04:31:05;;;;;;;1.67;1.50;;;;;;;;;;5072638;28;20403;-86
2022/07/02 04:33:30;;;;;;;1.92;1.40;;;;;;;;;;5072566;28;20379;-86
2022/07/02 04:35:56;;;;;;;1.90;1.40;;;;;;;;;;5072600;28;20859;-86
2022/07/02 04:38:23;;;;;;;2.22;1.48;;;;;;;;;;5072536;28;20379;-86
2022/07/02 04:40:55;;;;;;;1.42;1.23;;;;;;;;;;5072465;28;20790;-86
2022/07/02 04:43:21;;;;;;;1.63;1.35;;;;;;;;;;5072385;28;20923;-86
2022/07/02 04:45:47;;;;;;;1.58;1.17;;;;;;;;;;5072477;28;20380;-86
2022/07/02 04:48:13;;;;;;;2.20;1.57;;;;;;;;;;5072844;28;20387;-86
2022/07/02 04:50:39;;;;;;;2.42;1.30;;;;;;;;;;5071824;28;20865;-86
2022/07/02 04:53:05;;;;;;;1.88;1.10;;;;;;;;;;5072401;28;20459;-86
2022/07/02 04:55:31;;;;;;;3.10;1.40;;;;;;;;;;5074572;28;20964;-88
2022/07/02 04:57:57;;;;;;;1.30;1.20;;;;;;;;;;5071005;28;20461;-86
2022/07/02 05:00:23;;;;;;;1.98;1.30;;;;;;;;;;5066131;28;20468;-86
2022/07/02 05:02:49;;;;;;;1.30;1.20;;;;;;;;;;5069693;28;20877;-86
2022/07/02 05:05:15;;;;;;;1.80;1.23;;;;;;;;;;5073110;28;20378;-86
2022/07/02 05:07:41;;;;;;;1.42;1.10;;;;;;;;;;5073441;28;20406;-86
2022/07/02 05:10:07;;;;;;;1.35;1.20;;;;;;;;;;5059368;28;20456;-87
2022/07/02 05:12:33;;;;;;;1.30;1.20;;;;;;;;;;5063830;28;20454;-86
2022/07/02 05:14:59;;;;;;;1.30;1.20;;;;;;;;;;5072355;28;20384;-86
2022/07/02 05:17:25;;;;;;;1.20;1.10;;;;;;;;;;5072003;28;20440;-86
2022/07/02 05:19:51;;;;;;;1.77;1.20;;;;;;;;;;5071693;28;20486;-87
2022/07/02 05:22:17;;;;;;;1.75;0.90;;;;;;;;;;5072001;28;20399;-86
2022/07/02 05:24:43;;;;;;;2.42;1.08;;;;;;;;;;5072053;28;20387;-86
2022/07/02 05:27:09;;;;;;;2.10;1.30;;;;;;;;;;5072039;28;20415;-86
2022/07/02 05:29:35;;;;;;;2.07;1.20;;;;;;;;;;5071814;28;20376;-85
2022/07/02 05:32:01;;;;;;;1.00;1.00;;;;;;;;;;5071997;28;20429;-86
2022/07/02 05:34:27;;;;;;;1.80;1.20;;;;;;;;;;5071338;28;20892;-86
2022/07/02 05:36:53;;;;;;;1.13;0.98;;;;;;;;;;5070614;28;20462;-87
2022/07/02 05:39:19;;;;;;;1.17;1.00;;;;;;;;;;5071940;28;20398;-87
2022/07/02 05:41:45;;;;;;;2.83;1.20;;;;;;;;;;5070405;28;20880;-87
2022/07/02 05:44:11;;;;;;;1.50;1.25;;;;;;;;;;5070600;28;20380;-86
2022/07/02 05:46:37;;;;;;;1.40;1.10;;;;;;;;;;5071714;28;20382;-86
2022/07/02 05:49:03;;;;;;;1.20;1.10;;;;;;;;;;5071814;28;20368;-86
2022/07/02 05:51:29;;;;;;;2.45;1.42;;;;;;;;;;5070373;28;20809;-87
2022/07/02 05:53:55;;;;;;;1.42;1.33;;;;;;;;;;5069975;28;20387;-86
2022/07/02 05:56:21;;;;;;;1.15;1.08;;;;;;;;;;5071451;28;20432;-86
2022/07/02 05:58:46;;;;;;;1.60;1.30;;;;;;;;;;5075380;28;20379;-87
2022/07/02 06:01:12;;;;;;;1.30;1.20;;;;;;;;;;5071531;28;20376;-87
2022/07/02 06:03:39;;;;;;;1.95;1.20;;;;;;;;;;5073798;28;20380;-87
2022/07/02 06:08:49;;;;;;;1.98;1.77;;;;;;;;;;5075362;28;20425;-87
2022/07/02 06:11:15;;;;;;;2.28;1.83;;;;;;;;;;5075753;28;20384;-87
2022/07/02 06:13:41;;;;;;;2.35;2.15;;;;;;;;;;5075549;28;20379;-87
2022/07/02 06:16:07;;;;;;;2.10;1.90;;;;;;;;;;5075140;28;20790;-87
2022/07/02 06:18:33;;;;;;;2.58;2.38;;;;;;;;;;5075209;28;20857;-87
2022/07/02 06:20:59;;;;;;;2.10;2.00;;;;;;;;;;5074870;28;20441;-86
2022/07/02 06:23:26;;;;;;;2.45;2.25;;;;;;;;;;5075328;28;20478;-86
2022/07/02 06:25:52;;;;;;;2.78;2.58;;;;;;;;;;5075018;28;20371;-87
2022/07/02 06:28:18;;;;;;;3.10;2.80;;;;;;;;;;5074986;28;20378;-87
2022/07/02 06:30:44;;;;;;;2.23;2.13;;;;;;;;;;5075028;28;20403;-87
2022/07/02 06:33:10;;;;;;;1.90;1.70;;;;;;;;;;5074700;28;20379;-87
2022/07/02 06:35:36;;;;;;;1.67;1.58;;;;;;;;;;5074082;28;20931;-87
2022/07/02 06:38:02;;;;;;;1.70;1.60;;;;;;;;;;5074843;28;20392;-87
2022/07/02 06:40:28;;;;;;;2.00;1.90;;;;;;;;;;5074735;28;20383;-87
2022/07/02 06:42:55;;;;;;;1.90;1.80;;;;;;;;;;5072018;28;20441;-89
2022/07/02 06:45:21;;;;;;;1.50;1.40;;;;;;;;;;5074538;28;20404;-87
2022/07/02 06:47:47;;;;;;;1.98;1.83;;;;;;;;;;5074667;28;20386;-87
2022/07/02 06:50:14;;;;;;;1.70;1.33;;;;;;;;;;5073285;28;20383;-86
2022/07/02 06:52:44;;;;;;;2.10;1.75;;;;;;;;;;5073900;28;20446;-87
2022/07/02 06:55:10;;;;;;;2.60;2.00;;;;;;;;;;5074508;28;20380;-87
2022/07/02 06:57:36;;;;;;;1.80;1.70;;;;;;;;;;5074527;28;20384;-87
2022/07/02 07:00:03;;;;;;;1.52;1.42;;;;;;;;;;5074395;28;20384;-89
2022/07/02 07:02:29;;;;;;;1.63;1.52;;;;;;;;;;5069285;28;20562;-87
2022/07/02 07:04:55;;;;;;;2.05;1.95;;;;;;;;;;5074424;28;20387;-88
2022/07/02 07:07:27;;;;;;;2.15;1.63;;;;;;;;;;5074222;28;20440;-89
2022/07/02 07:09:53;;;;;;;2.20;1.73;;;;;;;;;;5074498;28;20376;-90
2022/07/02 07:12:19;;;;;;;1.85;1.58;;;;;;;;;;5073801;28;20394;-88
2022/07/02 07:14:45;;;;;;;1.60;1.50;;;;;;;;;;5076186;28;20430;-88
2022/07/02 07:17:11;;;;;;;1.52;1.42;;;;;;;;;;5074104;28;20384;-87
2022/07/02 07:19:37;;;;;;;1.40;1.30;;;;;;;;;;5073893;28;20417;-86
2022/07/02 07:22:03;;;;;;;1.50;1.40;;;;;;;;;;5074036;28;20424;-86
2022/07/02 07:24:29;;;;;;;1.75;1.10;;;;;;;;;;5071419;28;20381;-86
2022/07/02 07:26:57;;;;;;;1.40;1.30;;;;;;;;;;5072170;28;20384;-85
2022/07/02 07:29:23;;;;;;;1.40;1.30;;;;;;;;;;5073814;28;20371;-88
2022/07/02 07:31:49;;;;;;;1.42;1.33;;;;;;;;;;5073865;28;20380;-86
2022/07/02 07:34:15;;;;;;;1.80;1.02;;;;;;;;;;5073788;28;20749;-87
2022/07/02 07:36:41;;;;;;;2.40;1.10;;;;;;;;;;5073646;28;20376;-88
2022/07/02 07:39:07;;;;;;;0.77;0.77;;;;;;;;;;5064185;28;20374;-88
2022/07/02 07:41:33;;;;;;;0.70;0.70;;;;;;;;;;5053384;28;20415;-87
2022/07/02 07:44:00;;;;;;;0.60;0.60;;;;;;;;;;5052430;28;20464;-88
2022/07/02 07:46:26;;;;;;;1.10;0.70;;;;;;;;;;5053893;28;20374;-87
2022/07/02 07:48:52;;;;;;;0.70;0.53;;;;;;;;;;5053523;28;20405;-87
2022/07/02 07:51:18;;;;;;;1.00;0.50;;;;;;;;;;5053524;28;20718;-87
2022/07/02 07:53:44;;;;;;;0.60;0.60;;;;;;;;;;5053406;28;20384;-87
2022/07/02 07:56:19;;;;;;;1.45;0.63;;;;;;;;;;5053628;28;20381;-87
2022/07/02 07:58:46;;;;;;;0.63;0.40;;;;;;;;;;5066132;28;20378;-86
2022/07/02 08:01:12;;;;;;;0.55;0.20;;;;;;;;;;5080460;28;20438;-87
2022/07/02 08:03:38;;;;;;;0.75;0.30;;;;;;;;;;5071840;28;20375;-88
2022/07/02 08:06:04;;;;;;;0.30;0.30;;;;;;;;;;5053346;28;20382;-90
2022/07/02 08:08:30;;;;;;;0.75;0.20;;;;;;;;;;5066927;28;20383;-91
2022/07/02 08:10:56;;;;;;;0.60;0.30;;;;;;;;;;5066532;28;20382;-90
2022/07/02 08:13:22;;;;;;;1.00;0.30;;;;;;;;;;5074774;28;20382;-93
2022/07/02 08:15:48;;;;;;;0.40;0.30;;;;;;;;;;5074237;28;20749;-92
2022/07/02 08:18:14;;;;;;;0.85;0.40;;;;;;;;;;5073308;28;20914;-92
2022/07/02 08:20:40;;;;;;;1.47;0.37;;;;;;;;;;5071176;28;21684;-91
2022/07/02 08:23:06;;;;;;;0.63;0.30;;;;;;;;;;5071465;28;20494;-92
2022/07/02 08:25:32;;;;;;;0.45;0.30;;;;;;;;;;5070124;28;20384;-91
2022/07/02 08:27:58;;;;;;;0.50;0.20;;;;;;;;;;5071680;28;20726;-89
2022/07/02 08:30:24;;;;;;;1.35;0.20;;;;;;;;;;5071738;28;20380;-88
2022/07/02 08:32:51;;;;;;;1.75;0.20;;;;;;;;;;5071929;28;20383;-87
2022/07/02 08:35:17;;;;;;;1.40;0.30;;;;;;;;;;5072039;28;20375;-87
2022/07/02 08:37:43;;;;;;;0.38;0.20;;;;;;;;;;5072728;28;20453;-87
2022/07/02 08:40:10;;;;;;;1.13;0.30;;;;;;;;;;5070216;28;20468;-87
2022/07/02 08:42:36;;;;;;;1.08;0.20;;;;;;;;;;5070980;28;20407;-88
2022/07/02 08:45:03;;;;;;;1.73;0.40;;;;;;;;;;5071613;28;20380;-87
2022/07/02 08:47:30;;;;;;;0.95;0.30;;;;;;;;;;5071457;28;20889;-86
2022/07/02 08:49:57;;;;;;;1.25;0.30;;;;;;;;;;5071303;28;20395;-87
2022/07/02 08:52:24;;;;;;;0.90;0.40;;;;;;;;;;5070618;28;20383;-88
2022/07/02 08:54:50;;;;;;;1.17;0.22;;;;;;;;;;5070464;28;20458;-84
2022/07/02 08:57:17;;;;;;;0.38;0.20;;;;;;;;;;5070951;28;20431;-89
2022/07/02 08:59:43;;;;;;;0.30;0.22;;;;;;;;;;5072194;28;20387;-89
2022/07/02 09:02:15;;;;;;;0.30;0.30;;;;;;;;;;5071726;28;20413;-89
2022/07/02 09:04:48;;;;;;;0.43;0.28;;;;;;;;;;5071514;28;20444;-91
2022/07/02 09:07:15;;;;;;;1.50;0.30;;;;;;;;;;5070283;28;20860;-92
2022/07/02 09:09:42;;;;;;;0.60;0.40;;;;;;;;;;5072041;28;20376;-88
2022/07/02 09:12:09;;;;;;;1.00;0.20;;;;;;;;;;5072104;28;20383;-89
2022/07/02 09:14:35;;;;;;;1.25;0.30;;;;;;;;;;5072531;28;20518;-88
2022/07/02 09:17:02;;;;;;;1.80;0.25;;;;;;;;;;5072249;28;20466;-89
2022/07/02 09:19:28;;;;;;;0.80;0.20;;;;;;;;;;5071997;28;20372;-89
2022/07/02 09:21:54;;;;;;;0.50;0.22;;;;;;;;;;5073081;28;20418;-90
2022/07/02 09:24:30;;;;;;;0.60;0.30;;;;;;;;;;5070218;28;20371;-91
2022/07/02 09:27:03;;;;;;;0.30;0.20;;;;;;;;;;5071178;28;20410;-88
2022/07/02 09:29:29;;;;;;;0.20;0.20;;;;;;;;;;5071373;28;20376;-89
2022/07/02 09:31:55;;;;;;;0.43;0.30;;;;;;;;;;5072234;28;20387;-87
2022/07/02 09:34:25;;;;;;;0.35;0.30;;;;;;;;;;5072098;28;20379;-90
2022/07/02 09:36:51;;;;;;;0.90;0.20;;;;;;;;;;5072994;28;20437;-90
2022/07/02 09:39:26;;;;;;;0.30;0.30;;;;;;;;;;5076198;28;20379;-91
2022/07/02 09:41:52;;;;;;;2.67;0.20;;;;;;;;;;5075256;28;20412;-85
2022/07/02 09:44:18;;;;;;;0.80;0.20;;;;;;;;;;5074816;28;20426;-87
2022/07/02 09:46:44;;;;;;;0.80;0.40;;;;;;;;;;5073123;28;20390;-87
2022/07/02 09:49:12;;;;;;;0.27;0.20;;;;;;;;;;5074572;28;20490;-88
2022/07/02 09:51:51;;;;;;;1.80;0.20;;;;;;;;;;5074459;28;20371;-88
2022/07/02 09:54:21;;;;;;;0.30;0.20;;;;;;;;;;5075467;28;20411;-89
2022/07/02 09:56:50;;;;;;;1.90;0.35;;;;;;;;;;5075156;28;20411;-91
2022/07/02 09:59:16;;;;;;;1.13;0.35;;;;;;;;;;5074385;28;20395;-89
2022/07/02 10:01:44;;;;;;;0.60;0.20;;;;;;;;;;5074386;28;20420;-89
2022/07/02 10:04:10;;;;;;;1.00;0.45;;;;;;;;;;5073929;28;20432;-88
2022/07/02 10:06:36;;;;;;;0.30;0.30;;;;;;;;;;5074193;28;20865;-91
2022/07/02 10:09:02;;;;;;;0.57;0.30;;;;;;;;;;5074960;28;20384;-92
2022/07/02 10:11:29;;;;;;;0.32;0.30;;;;;;;;;;5075505;28;20388;-90
2022/07/02 10:13:55;;;;;;;0.30;0.30;;;;;;;;;;5075337;28;20402;-89
2022/07/02 10:16:22;;;;;;;1.85;0.25;;;;;;;;;;5081467;28;20374;-89
2022/07/02 10:18:49;;;;;;;0.73;0.22;;;;;;;;;;5066357;28;20370;-89
2022/07/02 10:21:16;;;;;;;1.80;0.40;;;;;;;;;;5053376;28;20937;-89
2022/07/02 10:23:43;;;;;;;0.50;0.30;;;;;;;;;;5054659;28;20413;-88
2022/07/02 10:26:13;;;;;;;0.37;0.30;;;;;;;;;;5055537;28;20916;-89
2022/07/02 10:28:39;;;;;;;0.70;0.40;;;;;;;;;;5062338;28;20606;-88
2022/07/02 10:31:11;;;;;;;0.38;0.30;;;;;;;;;;5072880;28;20376;-89
2022/07/02 10:33:55;;;;;;;0.60;0.30;;;;;;;;;;5073671;28;20382;-89
2022/07/02 10:36:21;;;;;;;1.45;0.30;;;;;;;;;;5073666;28;20371;-89
2022/07/02 10:38:56;;;;;;;0.30;0.22;;;;;;;;;;5074116;28;20861;-91
2022/07/02 10:41:26;;;;;;;1.00;0.50;;;;;;;;;;5070927;28;20372;-89
2022/07/02 10:43:54;;;;;;;0.77;0.32;;;;;;;;;;5073460;28;20471;-90
2022/07/02 10:46:20;;;;;;;0.35;0.30;;;;;;;;;;5073788;28;20429;-88
2022/07/02 10:48:51;;;;;;;0.30;0.20;;;;;;;;;;5073133;28;20380;-89
2022/07/02 10:51:18;;;;;;;0.80;0.30;;;;;;;;;;5073317;28;20383;-91
2022/07/02 10:53:48;;;;;;;1.08;0.38;;;;;;;;;;5073131;28;20391;-91
2022/07/02 10:56:14;;;;;;;0.60;0.40;;;;;;;;;;5074538;28;20506;-90
2022/07/02 10:58:40;;;;;;;0.30;0.25;;;;;;;;;;5073707;28;20470;-91
2022/07/02 11:01:10;;;;;;;0.70;0.30;;;;;;;;;;5074308;28;20782;-91
2022/07/02 11:03:36;;;;;;;0.75;0.40;;;;;;;;;;5072032;28;20407;-92
2022/07/02 11:06:04;;;;;;;1.20;0.43;;;;;;;;;;5071765;28;20884;-92
2022/07/02 11:08:46;;;;;;;0.28;0.28;;;;;;;;;;5073235;28;20862;-90
2022/07/02 11:11:22;;;;;;;0.27;0.20;;;;;;;;;;5069594;28;20421;-92
2022/07/02 11:13:55;;;;;;;0.40;0.38;;;;;;;;;;5074402;28;20376;-91
2022/07/02 11:16:30;;;;;;;0.40;0.30;;;;;;;;;;5072991;28;20903;-90
2022/07/02 11:18:58;;;;;;;0.50;0.30;;;;;;;;;;5072806;28;20869;-91
2022/07/02 11:21:24;;;;;;;0.30;0.30;;;;;;;;;;5073764;28;20384;-90
2022/07/02 11:23:51;;;;;;;0.30;0.30;;;;;;;;;;5073253;28;20383;-91
2022/07/02 11:26:18;;;;;;;0.60;0.40;;;;;;;;;;5072503;28;20364;-91
2022/07/02 11:28:44;;;;;;;0.90;0.60;;;;;;;;;;5064830;28;20391;-91
2022/07/02 11:31:10;;;;;;;0.55;0.30;;;;;;;;;;5057116;28;20389;-90
2022/07/02 11:33:37;;;;;;;1.60;0.28;;;;;;;;;;5075304;28;20392;-92
2022/07/02 11:36:03;;;;;;;0.40;0.30;;;;;;;;;;5053973;28;20386;-92
2022/07/02 11:38:37;;;;;;;0.30;0.30;;;;;;;;;;5071090;28;20380;-93
2022/07/02 11:41:03;;;;;;;0.20;0.20;;;;;;;;;;5072598;28;20453;-93
2022/07/02 11:43:29;;;;;;;0.20;0.20;;;;;;;;;;5073634;28;20415;-91
2022/07/02 11:45:55;;;;;;;0.95;0.30;;;;;;;;;;5073339;28;20392;-92
2022/07/02 11:48:22;;;;;;;0.60;0.30;;;;;;;;;;5072158;28;20387;-90
2022/07/02 11:50:55;;;;;;;0.90;0.40;;;;;;;;;;5052281;28;20401;-91
2022/07/02 11:53:21;;;;;;;0.50;0.40;;;;;;;;;;5072071;28;20451;-93
2022/07/02 11:55:47;;;;;;;0.45;0.30;;;;;;;;;;5072163;28;20472;-90
2022/07/02 11:58:13;;;;;;;0.30;0.30;;;;;;;;;;5073381;28;20848;-91
2022/07/02 12:00:39;;;;;;;1.00;0.30;;;;;;;;;;5073311;28;20391;-90
2022/07/02 12:03:09;;;;;;;1.30;0.30;;;;;;;;;;5071788;28;20408;-89
2022/07/02 12:05:35;;;;;;;0.50;0.20;;;;;;;;;;5071983;28;20407;-91
2022/07/02 12:08:02;;;;;;;0.20;0.20;;;;;;;;;;5063716;28;20377;-90
2022/07/02 12:10:28;;;;;;;0.82;0.30;;;;;;;;;;5053016;28;20922;-88
2022/07/02 12:12:54;;;;;;;0.60;0.30;;;;;;;;;;5052958;28;20871;-89
2022/07/02 12:15:20;;;;;;;1.25;0.35;;;;;;;;;;5061298;28;20390;-88
2022/07/02 12:17:47;;;;;;;0.68;0.30;;;;;;;;;;5052154;28;20377;-88
2022/07/02 12:20:13;;;;;;;0.30;0.30;;;;;;;;;;5056981;28;20741;-90
2022/07/02 12:22:40;;;;;;;0.57;0.30;;;;;;;;;;5072872;28;20770;-89
2022/07/02 12:25:06;;;;;;;0.47;0.20;;;;;;;;;;5074141;28;20380;-88
2022/07/02 12:27:36;;;;;;;0.50;0.40;;;;;;;;;;5072761;28;20415;-88
2022/07/02 12:30:15;;;;;;;1.33;0.30;;;;;;;;;;5072699;28;20376;-88
2022/07/02 12:32:41;;;;;;;0.88;0.38;;;;;;;;;;5071545;28;20406;-88
2022/07/02 12:35:10;;;;;;;0.63;0.30;;;;;;;;;;5063757;28;20378;-89
2022/07/02 12:37:43;;;;;;;0.32;0.32;;;;;;;;;;5052654;28;20393;-87
2022/07/02 12:40:13;;;;;;;0.68;0.40;;;;;;;;;;5052539;28;20401;-87
2022/07/02 12:43:01;;;;;;;0.50;0.30;;;;;;;;;;5070582;28;20410;-87
2022/07/02 12:45:35;;;;;;;0.85;0.30;;;;;;;;;;5066743;28;20839;-87
2022/07/02 12:48:08;;;;;;;0.30;0.30;;;;;;;;;;5052654;28;20389;-87
2022/07/02 12:50:38;;;;;;;0.43;0.30;;;;;;;;;;5051046;28;20428;-87
2022/07/02 12:53:07;;;;;;;0.50;0.30;;;;;;;;;;5052555;28;20460;-87
2022/07/02 12:55:34;;;;;;;0.65;0.20;;;;;;;;;;5052349;28;20847;-88
2022/07/02 12:58:01;;;;;;;0.70;0.30;;;;;;;;;;5065611;28;20387;-88
2022/07/02 13:00:27;;;;;;;0.40;0.40;;;;;;;;;;5072170;28;20380;-88
2022/07/02 13:03:01;;;;;;;0.40;0.30;;;;;;;;;;5070951;28;20411;-88
2022/07/02 13:05:28;;;;;;;0.17;0.17;;;;;;;;;;5072235;28;20873;-88
2022/07/02 13:07:54;;;;;;;0.30;0.30;;;;;;;;;;5072261;28;20380;-88
2022/07/02 13:10:20;;;;;;;0.98;0.30;;;;;;;;;;5057433;28;20377;-88
2022/07/02 13:12:47;;;;;;;0.30;0.30;;;;;;;;;;5051960;28;20491;-87
2022/07/02 13:15:13;;;;;;;0.52;0.40;;;;;;;;;;5058896;28;20861;-86
2022/07/02 13:17:39;;;;;;;1.10;0.30;;;;;;;;;;5071803;28;20895;-87
2022/07/02 13:20:05;;;;;;;0.60;0.40;;;;;;;;;;5071908;28;20399;-88
2022/07/02 13:22:31;;;;;;;1.05;0.30;;;;;;;;;;5072143;28;20458;-88
2022/07/02 13:24:57;;;;;;;0.50;0.30;;;;;;;;;;5071299;28;20380;-88
2022/07/02 13:27:23;;;;;;;0.38;0.30;;;;;;;;;;5071973;28;20380;-88
2022/07/02 13:29:54;;;;;;;0.95;0.20;;;;;;;;;;5071632;28;20368;-88
2022/07/02 13:32:20;;;;;;;0.28;0.25;;;;;;;;;;5074559;28;20383;-90
2022/07/02 13:34:47;;;;;;;0.60;0.30;;;;;;;;;;5071918;28;20464;-87
2022/07/02 13:37:13;;;;;;;0.68;0.30;;;;;;;;;;5072317;28;20413;-87
2022/07/02 13:39:42;;;;;;;2.47;0.45;;;;;;;;;;5071946;28;20380;-86
2022/07/02 13:42:08;;;;;;;1.00;0.32;;;;;;;;;;5071855;28;20399;-87
2022/07/02 13:44:34;;;;;;;0.75;0.20;;;;;;;;;;5072034;28;20776;-87
2022/07/02 13:47:00;;;;;;;0.60;0.30;;;;;;;;;;5071766;28;20386;-86
2022/07/02 13:49:26;;;;;;;0.67;0.10;;;;;;;;;;5071951;28;20384;-87
2022/07/02 13:51:52;;;;;;;0.75;0.30;;;;;;;;;;5074367;28;20466;-87
2022/07/02 13:54:18;;;;;;;1.20;0.30;;;;;;;;;;5071916;28;20434;-87
2022/07/02 13:56:44;;;;;;;0.70;0.30;;;;;;;;;;5071869;28;20462;-87
2022/07/02 13:59:10;;;;;;;0.25;0.25;;;;;;;;;;5071761;28;20861;-86
2022/07/02 14:01:37;;;;;;;0.90;0.20;;;;;;;;;;5070319;28;20395;-87
2022/07/02 14:04:03;;;;;;;0.32;0.32;;;;;;;;;;5071677;28;20372;-87
2022/07/02 14:06:29;;;;;;;0.97;0.23;;;;;;;;;;5071682;28;20455;-87
2022/07/02 14:08:55;;;;;;;0.38;0.30;;;;;;;;;;5071673;28;20383;-86
2022/07/02 14:11:22;;;;;;;0.40;0.28;;;;;;;;;;5071592;28;20379;-87
2022/07/02 14:13:48;;;;;;;0.20;0.20;;;;;;;;;;5071712;28;20462;-87
2022/07/02 14:16:14;;;;;;;0.40;0.30;;;;;;;;;;5071528;28;20477;-87
2022/07/02 14:18:40;;;;;;;0.80;0.30;;;;;;;;;;5071677;28;20439;-87
2022/07/02 14:21:06;;;;;;;0.90;0.30;;;;;;;;;;5071384;28;20395;-87
2022/07/02 14:23:32;;;;;;;0.50;0.20;;;;;;;;;;5072224;28;20407;-86
2022/07/02 14:25:59;;;;;;;0.50;0.30;;;;;;;;;;5090577;28;20368;-86
2022/07/02 14:28:25;;;;;;;0.65;0.30;;;;;;;;;;5075315;28;20372;-86
2022/07/02 14:30:51;;;;;;;0.50;0.38;;;;;;;;;;5075074;28;20383;-86
2022/07/02 14:33:17;;;;;;;0.32;0.30;;;;;;;;;;5075033;28;20745;-86
2022/07/02 14:35:47;;;;;;;0.95;0.30;;;;;;;;;;5074720;28;20388;-87
2022/07/02 14:38:13;;;;;;;0.30;0.20;;;;;;;;;;5074940;28;20455;-86
2022/07/02 14:40:40;;;;;;;0.80;0.20;;;;;;;;;;5075183;28;20398;-87
2022/07/02 14:43:06;;;;;;;0.50;0.30;;;;;;;;;;5074923;28;20403;-86
2022/07/02 14:45:32;;;;;;;0.88;0.68;;;;;;;;;;5074789;28;20737;-86
2022/07/02 14:47:58;;;;;;;1.20;0.30;;;;;;;;;;5074826;28;20382;-87